Pagrindinis puslapis
METAR-TAF:

METAR-TAF

Oro uostai :

Nakhon Phanom, Tailandas

platuma: 17-23-02N, ilguma: 104-38-35E, Aukštis: 179 m

Dabartinis oras

Ataskaita buvo paskelbta 55 minutes, ne 08:00 UTC
Vėjas 14 kt iš Rytų, svyruoja nuo Šiaurės Rytų ir Rytų/Pietryčių
Temperatūra 25°C
Drėgmė 47%
Slėgis 1017 hPa
Matomumas 10 km arba daugiau
Išsisklaidę debesys ne aukštis 3500 ft

METAR: VTUW 170800Z 09014KT 040V120 9999 SCT035 25/13 Q1017 NOSIG

Laikas: 15:55 (08:55 UTC)

Prognozė

Ataskaita buvo paskelbta 3 valandos ir 55 minutes, ne 05:00 UTC
Prognozė galioja nuo 17 metu 06 UTC su 18 metu 06 UTC
Vėjas 8 kt iš Rytų/Šiaurės Rytų
Matomumas 10 km arba daugiau
Mažai debesys ne aukštis 3500 ft

TAF: VTUW 170500Z 1706/1806 07008KT 9999 FEW035

Orai ataskaitas ir orų prognozės (METAR, TAF).

turimą stotys yra geltonos ir raudonos taškus žemėlapyje.

Perkelti pele per norėdami pamatyti stoties vardą.

Tada spustelėkite, norėdami matyti oro stebėjimo ir prognozės.

Norėdami pakeisti žemėlapį: spustelėkite ant žalios mygtukų su juodo kryžiaus žemyn,; žalią mygtuką su brūkšneliu, jei norite nutolinti; arba žalių rodyklių gretimoms žemėlapius.


METAR-TAF: